sensor_id;sensor_type;location;lat;lon;timestamp;P1;durP1;ratioP1;P2;durP2;ratioP2
76262;SDS011;65080;50.908;6.916;2023-01-13T00:00:52;0.50;;;0.30;;
76262;SDS011;65080;50.908;6.916;2023-01-13T00:03:21;1.43;;;0.40;;
76262;SDS011;65080;50.908;6.916;2023-01-13T00:05:49;0.50;;;0.30;;
76262;SDS011;65080;50.908;6.916;2023-01-13T00:08:18;0.40;;;0.30;;
76262;SDS011;65080;50.908;6.916;2023-01-13T00:10:46;0.40;;;0.30;;
76262;SDS011;65080;50.908;6.916;2023-01-13T00:13:14;0.60;;;0.30;;
76262;SDS011;65080;50.908;6.916;2023-01-13T00:15:43;0.40;;;0.30;;
76262;SDS011;65080;50.908;6.916;2023-01-13T00:18:12;0.40;;;0.27;;
76262;SDS011;65080;50.908;6.916;2023-01-13T00:20:41;0.50;;;0.30;;
76262;SDS011;65080;50.908;6.916;2023-01-13T00:23:09;0.47;;;0.30;;
76262;SDS011;65080;50.908;6.916;2023-01-13T00:25:38;0.40;;;0.30;;
76262;SDS011;65080;50.908;6.916;2023-01-13T00:28:06;0.40;;;0.30;;
76262;SDS011;65080;50.908;6.916;2023-01-13T00:30:35;0.50;;;0.30;;
76262;SDS011;65080;50.908;6.916;2023-01-13T00:33:04;0.70;;;0.30;;
76262;SDS011;65080;50.908;6.916;2023-01-13T00:35:33;0.50;;;0.40;;
76262;SDS011;65080;50.908;6.916;2023-01-13T00:38:02;0.70;;;0.40;;
76262;SDS011;65080;50.908;6.916;2023-01-13T00:40:30;0.57;;;0.43;;
76262;SDS011;65080;50.908;6.916;2023-01-13T00:42:58;0.60;;;0.40;;
76262;SDS011;65080;50.908;6.916;2023-01-13T00:45:45;0.50;;;0.30;;
76262;SDS011;65080;50.908;6.916;2023-01-13T00:48:13;0.90;;;0.40;;
76262;SDS011;65080;50.908;6.916;2023-01-13T00:50:43;0.40;;;0.30;;
76262;SDS011;65080;50.908;6.916;2023-01-13T00:53:11;0.90;;;0.40;;
76262;SDS011;65080;50.908;6.916;2023-01-13T00:55:40;0.97;;;0.40;;
76262;SDS011;65080;50.908;6.916;2023-01-13T00:58:08;0.60;;;0.30;;
76262;SDS011;65080;50.908;6.916;2023-01-13T01:00:37;0.60;;;0.33;;
76262;SDS011;65080;50.908;6.916;2023-01-13T01:03:05;1.20;;;0.30;;
76262;SDS011;65080;50.908;6.916;2023-01-13T01:05:37;0.80;;;0.40;;
76262;SDS011;65080;50.908;6.916;2023-01-13T01:08:08;2.20;;;0.40;;
76262;SDS011;65080;50.908;6.916;2023-01-13T01:10:36;2.67;;;0.40;;
76262;SDS011;65080;50.908;6.916;2023-01-13T01:13:04;0.60;;;0.30;;
76262;SDS011;65080;50.908;6.916;2023-01-13T01:15:33;0.70;;;0.30;;
76262;SDS011;65080;50.908;6.916;2023-01-13T01:18:01;0.43;;;0.30;;
76262;SDS011;65080;50.908;6.916;2023-01-13T01:20:30;1.00;;;0.37;;
76262;SDS011;65080;50.908;6.916;2023-01-13T01:22:58;0.80;;;0.40;;
76262;SDS011;65080;50.908;6.916;2023-01-13T01:25:28;2.00;;;0.50;;
76262;SDS011;65080;50.908;6.916;2023-01-13T01:27:56;1.40;;;0.50;;
76262;SDS011;65080;50.908;6.916;2023-01-13T01:30:24;1.37;;;0.50;;
76262;SDS011;65080;50.908;6.916;2023-01-13T01:32:53;2.13;;;0.50;;
76262;SDS011;65080;50.908;6.916;2023-01-13T01:35:22;4.87;;;0.70;;
76262;SDS011;65080;50.908;6.916;2023-01-13T01:37:51;2.00;;;0.60;;
76262;SDS011;65080;50.908;6.916;2023-01-13T01:40:19;2.20;;;0.60;;
76262;SDS011;65080;50.908;6.916;2023-01-13T01:42:49;1.57;;;0.50;;
76262;SDS011;65080;50.908;6.916;2023-01-13T01:45:35;1.57;;;0.60;;
76262;SDS011;65080;50.908;6.916;2023-01-13T01:48:03;2.40;;;0.60;;
76262;SDS011;65080;50.908;6.916;2023-01-13T01:50:34;2.87;;;0.97;;
76262;SDS011;65080;50.908;6.916;2023-01-13T01:53:06;1.93;;;0.60;;
76262;SDS011;65080;50.908;6.916;2023-01-13T01:55:39;6.00;;;0.50;;
76262;SDS011;65080;50.908;6.916;2023-01-13T01:58:09;1.57;;;0.50;;
76262;SDS011;65080;50.908;6.916;2023-01-13T02:00:41;1.70;;;0.70;;
76262;SDS011;65080;50.908;6.916;2023-01-13T02:03:10;2.00;;;0.50;;
76262;SDS011;65080;50.908;6.916;2023-01-13T02:05:38;1.60;;;0.40;;
76262;SDS011;65080;50.908;6.916;2023-01-13T02:08:07;1.20;;;0.50;;
76262;SDS011;65080;50.908;6.916;2023-01-13T02:10:37;0.90;;;0.60;;
76262;SDS011;65080;50.908;6.916;2023-01-13T02:13:09;3.60;;;0.67;;
76262;SDS011;65080;50.908;6.916;2023-01-13T02:15:41;0.97;;;0.50;;
76262;SDS011;65080;50.908;6.916;2023-01-13T02:18:21;2.93;;;0.53;;
76262;SDS011;65080;50.908;6.916;2023-01-13T02:21:12;2.80;;;0.93;;
76262;SDS011;65080;50.908;6.916;2023-01-13T02:27:35;6.37;;;0.97;;
76262;SDS011;65080;50.908;6.916;2023-01-13T02:33:32;5.10;;;0.70;;
76262;SDS011;65080;50.908;6.916;2023-01-13T02:36:09;0.97;;;0.50;;
76262;SDS011;65080;50.908;6.916;2023-01-13T02:38:45;2.20;;;0.50;;
76262;SDS011;65080;50.908;6.916;2023-01-13T02:41:20;1.60;;;0.70;;
76262;SDS011;65080;50.908;6.916;2023-01-13T02:44:10;2.77;;;0.60;;
76262;SDS011;65080;50.908;6.916;2023-01-13T02:46:47;2.07;;;0.50;;
76262;SDS011;65080;50.908;6.916;2023-01-13T02:49:22;0.97;;;0.57;;
76262;SDS011;65080;50.908;6.916;2023-01-13T02:52:00;0.60;;;0.40;;
76262;SDS011;65080;50.908;6.916;2023-01-13T02:54:34;2.40;;;0.53;;
76262;SDS011;65080;50.908;6.916;2023-01-13T02:57:04;3.13;;;0.67;;
76262;SDS011;65080;50.908;6.916;2023-01-13T02:59:35;2.07;;;0.60;;
76262;SDS011;65080;50.908;6.916;2023-01-13T03:02:07;4.10;;;0.50;;
76262;SDS011;65080;50.908;6.916;2023-01-13T03:04:49;4.20;;;0.90;;
76262;SDS011;65080;50.908;6.916;2023-01-13T03:10:21;4.13;;;0.90;;
76262;SDS011;65080;50.908;6.916;2023-01-13T03:12:59;3.37;;;0.60;;
76262;SDS011;65080;50.908;6.916;2023-01-13T03:15:37;4.83;;;0.70;;
76262;SDS011;65080;50.908;6.916;2023-01-13T03:18:21;3.57;;;0.87;;
76262;SDS011;65080;50.908;6.916;2023-01-13T03:21:00;6.80;;;1.20;;
76262;SDS011;65080;50.908;6.916;2023-01-13T03:23:34;3.07;;;0.80;;
76262;SDS011;65080;50.908;6.916;2023-01-13T03:26:09;3.53;;;0.80;;
76262;SDS011;65080;50.908;6.916;2023-01-13T03:28:43;2.37;;;0.60;;
76262;SDS011;65080;50.908;6.916;2023-01-13T03:31:16;4.47;;;0.90;;
76262;SDS011;65080;50.908;6.916;2023-01-13T03:33:54;7.13;;;1.00;;
76262;SDS011;65080;50.908;6.916;2023-01-13T03:36:27;8.07;;;1.80;;
76262;SDS011;65080;50.908;6.916;2023-01-13T03:38:58;10.90;;;2.17;;
76262;SDS011;65080;50.908;6.916;2023-01-13T03:41:31;5.20;;;1.30;;
76262;SDS011;65080;50.908;6.916;2023-01-13T03:44:04;5.93;;;1.00;;
76262;SDS011;65080;50.908;6.916;2023-01-13T03:46:52;11.87;;;1.67;;
76262;SDS011;65080;50.908;6.916;2023-01-13T03:49:33;5.03;;;1.10;;
76262;SDS011;65080;50.908;6.916;2023-01-13T03:52:06;6.73;;;1.57;;
76262;SDS011;65080;50.908;6.916;2023-01-13T03:54:40;8.70;;;1.30;;
76262;SDS011;65080;50.908;6.916;2023-01-13T03:57:13;3.93;;;0.97;;
76262;SDS011;65080;50.908;6.916;2023-01-13T03:59:46;4.27;;;1.00;;
76262;SDS011;65080;50.908;6.916;2023-01-13T04:02:18;7.07;;;1.77;;
76262;SDS011;65080;50.908;6.916;2023-01-13T04:04:55;8.63;;;1.80;;
76262;SDS011;65080;50.908;6.916;2023-01-13T04:07:29;5.73;;;1.30;;
76262;SDS011;65080;50.908;6.916;2023-01-13T04:10:06;4.77;;;1.60;;
76262;SDS011;65080;50.908;6.916;2023-01-13T04:12:37;8.13;;;1.50;;
76262;SDS011;65080;50.908;6.916;2023-01-13T04:15:30;15.00;;;2.27;;
76262;SDS011;65080;50.908;6.916;2023-01-13T04:18:07;8.97;;;1.97;;
76262;SDS011;65080;50.908;6.916;2023-01-13T04:20:39;10.20;;;1.90;;
76262;SDS011;65080;50.908;6.916;2023-01-13T04:23:09;10.50;;;1.90;;
76262;SDS011;65080;50.908;6.916;2023-01-13T04:25:39;11.07;;;1.73;;
76262;SDS011;65080;50.908;6.916;2023-01-13T04:28:08;8.33;;;2.17;;
76262;SDS011;65080;50.908;6.916;2023-01-13T04:30:36;8.70;;;2.00;;
76262;SDS011;65080;50.908;6.916;2023-01-13T04:33:05;7.00;;;1.70;;
76262;SDS011;65080;50.908;6.916;2023-01-13T04:35:33;6.90;;;1.53;;
76262;SDS011;65080;50.908;6.916;2023-01-13T04:38:05;8.97;;;2.27;;
76262;SDS011;65080;50.908;6.916;2023-01-13T04:40:35;8.37;;;1.90;;
76262;SDS011;65080;50.908;6.916;2023-01-13T04:43:03;9.40;;;2.27;;
76262;SDS011;65080;50.908;6.916;2023-01-13T04:45:32;9.93;;;2.00;;
76262;SDS011;65080;50.908;6.916;2023-01-13T04:48:00;15.70;;;2.10;;
76262;SDS011;65080;50.908;6.916;2023-01-13T04:50:29;11.00;;;1.80;;
76262;SDS011;65080;50.908;6.916;2023-01-13T04:52:57;12.00;;;2.40;;
76262;SDS011;65080;50.908;6.916;2023-01-13T04:55:28;11.90;;;1.83;;
76262;SDS011;65080;50.908;6.916;2023-01-13T04:58:00;10.23;;;2.40;;
76262;SDS011;65080;50.908;6.916;2023-01-13T05:00:29;9.30;;;2.23;;
76262;SDS011;65080;50.908;6.916;2023-01-13T05:02:57;10.47;;;1.67;;
76262;SDS011;65080;50.908;6.916;2023-01-13T05:05:26;11.03;;;2.20;;
76262;SDS011;65080;50.908;6.916;2023-01-13T05:07:55;15.67;;;2.20;;
76262;SDS011;65080;50.908;6.916;2023-01-13T05:10:24;11.23;;;2.07;;
76262;SDS011;65080;50.908;6.916;2023-01-13T05:12:54;13.33;;;2.47;;
76262;SDS011;65080;50.908;6.916;2023-01-13T05:15:40;14.07;;;3.30;;
76262;SDS011;65080;50.908;6.916;2023-01-13T05:18:26;9.17;;;1.80;;
76262;SDS011;65080;50.908;6.916;2023-01-13T05:20:56;11.57;;;2.70;;
76262;SDS011;65080;50.908;6.916;2023-01-13T05:23:24;10.57;;;2.70;;
76262;SDS011;65080;50.908;6.916;2023-01-13T05:26:10;16.77;;;2.93;;
76262;SDS011;65080;50.908;6.916;2023-01-13T05:28:39;15.40;;;1.90;;
76262;SDS011;65080;50.908;6.916;2023-01-13T05:31:08;13.40;;;2.60;;
76262;SDS011;65080;50.908;6.916;2023-01-13T05:33:37;7.83;;;2.10;;
76262;SDS011;65080;50.908;6.916;2023-01-13T05:36:06;10.73;;;2.67;;
76262;SDS011;65080;50.908;6.916;2023-01-13T05:38:35;10.00;;;1.83;;
76262;SDS011;65080;50.908;6.916;2023-01-13T05:41:03;9.03;;;1.73;;
76262;SDS011;65080;50.908;6.916;2023-01-13T05:43:51;7.63;;;1.80;;
76262;SDS011;65080;50.908;6.916;2023-01-13T05:46:20;7.50;;;1.60;;
76262;SDS011;65080;50.908;6.916;2023-01-13T05:48:48;10.10;;;1.70;;
76262;SDS011;65080;50.908;6.916;2023-01-13T05:51:16;16.53;;;2.27;;
76262;SDS011;65080;50.908;6.916;2023-01-13T05:53:47;11.97;;;1.80;;
76262;SDS011;65080;50.908;6.916;2023-01-13T05:56:16;6.87;;;1.40;;
76262;SDS011;65080;50.908;6.916;2023-01-13T05:58:44;11.73;;;1.77;;
76262;SDS011;65080;50.908;6.916;2023-01-13T06:01:13;9.03;;;1.63;;
76262;SDS011;65080;50.908;6.916;2023-01-13T06:03:41;8.60;;;1.33;;
76262;SDS011;65080;50.908;6.916;2023-01-13T06:06:10;4.80;;;0.93;;
76262;SDS011;65080;50.908;6.916;2023-01-13T06:08:38;2.60;;;1.00;;
76262;SDS011;65080;50.908;6.916;2023-01-13T06:11:06;4.63;;;1.00;;
76262;SDS011;65080;50.908;6.916;2023-01-13T06:13:34;5.27;;;1.20;;
76262;SDS011;65080;50.908;6.916;2023-01-13T06:16:03;5.77;;;1.10;;
76262;SDS011;65080;50.908;6.916;2023-01-13T06:18:32;5.67;;;1.03;;
76262;SDS011;65080;50.908;6.916;2023-01-13T06:21:01;6.60;;;1.30;;
76262;SDS011;65080;50.908;6.916;2023-01-13T06:23:30;4.77;;;1.03;;
76262;SDS011;65080;50.908;6.916;2023-01-13T06:26:03;3.43;;;1.00;;
76262;SDS011;65080;50.908;6.916;2023-01-13T06:28:34;7.03;;;1.30;;
76262;SDS011;65080;50.908;6.916;2023-01-13T06:31:03;7.23;;;1.87;;
76262;SDS011;65080;50.908;6.916;2023-01-13T06:33:35;9.43;;;1.30;;
76262;SDS011;65080;50.908;6.916;2023-01-13T06:36:08;4.57;;;2.83;;
76262;SDS011;65080;50.908;6.916;2023-01-13T06:38:39;2.97;;;0.87;;
76262;SDS011;65080;50.908;6.916;2023-01-13T06:41:10;5.83;;;1.07;;
76262;SDS011;65080;50.908;6.916;2023-01-13T06:43:39;9.73;;;1.40;;
76262;SDS011;65080;50.908;6.916;2023-01-13T06:46:06;5.60;;;1.07;;
76262;SDS011;65080;50.908;6.916;2023-01-13T06:48:36;3.90;;;0.83;;
76262;SDS011;65080;50.908;6.916;2023-01-13T06:51:06;3.23;;;0.83;;
76262;SDS011;65080;50.908;6.916;2023-01-13T06:53:35;2.40;;;0.70;;
76262;SDS011;65080;50.908;6.916;2023-01-13T06:56:03;2.60;;;1.00;;
76262;SDS011;65080;50.908;6.916;2023-01-13T06:58:31;7.10;;;1.53;;
76262;SDS011;65080;50.908;6.916;2023-01-13T07:01:00;5.60;;;1.07;;
76262;SDS011;65080;50.908;6.916;2023-01-13T07:03:28;4.33;;;1.13;;
76262;SDS011;65080;50.908;6.916;2023-01-13T07:05:58;3.90;;;0.90;;
76262;SDS011;65080;50.908;6.916;2023-01-13T07:08:27;7.67;;;1.13;;
76262;SDS011;65080;50.908;6.916;2023-01-13T07:10:56;5.43;;;1.30;;
76262;SDS011;65080;50.908;6.916;2023-01-13T07:13:25;4.00;;;0.80;;
76262;SDS011;65080;50.908;6.916;2023-01-13T07:16:11;4.97;;;1.20;;
76262;SDS011;65080;50.908;6.916;2023-01-13T07:18:40;5.77;;;1.07;;
76262;SDS011;65080;50.908;6.916;2023-01-13T07:21:10;3.27;;;1.00;;
76262;SDS011;65080;50.908;6.916;2023-01-13T07:23:39;4.00;;;0.80;;
76262;SDS011;65080;50.908;6.916;2023-01-13T07:26:08;3.27;;;0.87;;
76262;SDS011;65080;50.908;6.916;2023-01-13T07:28:38;2.50;;;0.70;;
76262;SDS011;65080;50.908;6.916;2023-01-13T07:31:11;3.77;;;0.93;;
76262;SDS011;65080;50.908;6.916;2023-01-13T07:33:41;2.40;;;0.77;;
76262;SDS011;65080;50.908;6.916;2023-01-13T07:36:11;1.73;;;0.90;;
76262;SDS011;65080;50.908;6.916;2023-01-13T07:38:40;5.90;;;0.83;;
76262;SDS011;65080;50.908;6.916;2023-01-13T07:41:11;6.70;;;1.23;;
76262;SDS011;65080;50.908;6.916;2023-01-13T07:44:03;2.80;;;0.83;;
76262;SDS011;65080;50.908;6.916;2023-01-13T07:46:31;4.70;;;0.80;;
76262;SDS011;65080;50.908;6.916;2023-01-13T07:49:00;5.43;;;1.20;;
76262;SDS011;65080;50.908;6.916;2023-01-13T07:51:30;2.30;;;0.90;;
76262;SDS011;65080;50.908;6.916;2023-01-13T07:53:58;1.80;;;0.67;;
76262;SDS011;65080;50.908;6.916;2023-01-13T07:56:26;2.43;;;0.80;;
76262;SDS011;65080;50.908;6.916;2023-01-13T07:58:55;2.33;;;0.67;;
76262;SDS011;65080;50.908;6.916;2023-01-13T08:01:26;3.40;;;0.80;;
76262;SDS011;65080;50.908;6.916;2023-01-13T08:03:54;7.70;;;0.80;;
76262;SDS011;65080;50.908;6.916;2023-01-13T08:06:24;3.87;;;0.90;;
76262;SDS011;65080;50.908;6.916;2023-01-13T08:08:53;1.67;;;0.70;;
76262;SDS011;65080;50.908;6.916;2023-01-13T08:11:22;7.70;;;1.13;;
76262;SDS011;65080;50.908;6.916;2023-01-13T08:13:53;5.90;;;1.03;;
76262;SDS011;65080;50.908;6.916;2023-01-13T08:16:22;5.23;;;1.20;;
76262;SDS011;65080;50.908;6.916;2023-01-13T08:18:51;4.77;;;1.10;;
76262;SDS011;65080;50.908;6.916;2023-01-13T08:21:19;10.30;;;1.23;;
76262;SDS011;65080;50.908;6.916;2023-01-13T08:23:47;10.03;;;1.60;;
76262;SDS011;65080;50.908;6.916;2023-01-13T08:26:17;5.67;;;1.57;;
76262;SDS011;65080;50.908;6.916;2023-01-13T08:28:45;5.23;;;1.23;;
76262;SDS011;65080;50.908;6.916;2023-01-13T08:31:14;5.50;;;1.50;;
76262;SDS011;65080;50.908;6.916;2023-01-13T08:33:45;7.27;;;1.50;;
76262;SDS011;65080;50.908;6.916;2023-01-13T08:36:13;6.33;;;1.20;;
76262;SDS011;65080;50.908;6.916;2023-01-13T08:38:43;6.23;;;1.40;;
76262;SDS011;65080;50.908;6.916;2023-01-13T08:41:13;6.90;;;1.43;;
76262;SDS011;65080;50.908;6.916;2023-01-13T08:44:05;6.93;;;1.47;;
76262;SDS011;65080;50.908;6.916;2023-01-13T08:46:34;9.30;;;2.00;;
76262;SDS011;65080;50.908;6.916;2023-01-13T08:49:03;7.97;;;2.40;;
76262;SDS011;65080;50.908;6.916;2023-01-13T08:51:31;11.30;;;2.27;;
76262;SDS011;65080;50.908;6.916;2023-01-13T08:54:00;14.83;;;1.73;;
76262;SDS011;65080;50.908;6.916;2023-01-13T08:56:28;9.40;;;1.60;;
76262;SDS011;65080;50.908;6.916;2023-01-13T08:59:01;11.30;;;2.10;;
76262;SDS011;65080;50.908;6.916;2023-01-13T09:01:30;13.43;;;1.90;;
76262;SDS011;65080;50.908;6.916;2023-01-13T09:03:59;7.60;;;2.20;;
76262;SDS011;65080;50.908;6.916;2023-01-13T09:06:28;16.10;;;1.87;;
76262;SDS011;65080;50.908;6.916;2023-01-13T09:08:56;11.50;;;2.47;;
76262;SDS011;65080;50.908;6.916;2023-01-13T09:11:25;12.30;;;1.70;;
76262;SDS011;65080;50.908;6.916;2023-01-13T09:14:16;8.10;;;2.27;;
76262;SDS011;65080;50.908;6.916;2023-01-13T09:16:47;8.03;;;2.50;;
76262;SDS011;65080;50.908;6.916;2023-01-13T09:19:15;7.90;;;1.70;;
76262;SDS011;65080;50.908;6.916;2023-01-13T09:21:43;14.37;;;3.30;;
76262;SDS011;65080;50.908;6.916;2023-01-13T09:24:11;6.43;;;1.23;;
76262;SDS011;65080;50.908;6.916;2023-01-13T09:26:40;17.87;;;2.53;;
76262;SDS011;65080;50.908;6.916;2023-01-13T09:29:08;8.47;;;1.93;;
76262;SDS011;65080;50.908;6.916;2023-01-13T09:31:37;12.03;;;2.33;;
76262;SDS011;65080;50.908;6.916;2023-01-13T09:34:12;12.83;;;2.57;;
76262;SDS011;65080;50.908;6.916;2023-01-13T09:36:59;9.20;;;2.30;;
76262;SDS011;65080;50.908;6.916;2023-01-13T09:39:28;15.40;;;2.53;;
76262;SDS011;65080;50.908;6.916;2023-01-13T09:42:01;11.63;;;2.10;;
76262;SDS011;65080;50.908;6.916;2023-01-13T09:44:51;7.93;;;1.67;;
76262;SDS011;65080;50.908;6.916;2023-01-13T09:47:29;9.07;;;2.60;;
76262;SDS011;65080;50.908;6.916;2023-01-13T09:50:03;12.17;;;2.23;;
76262;SDS011;65080;50.908;6.916;2023-01-13T09:52:43;9.67;;;2.10;;
76262;SDS011;65080;50.908;6.916;2023-01-13T09:55:13;12.03;;;2.60;;
76262;SDS011;65080;50.908;6.916;2023-01-13T09:57:43;10.50;;;2.30;;
76262;SDS011;65080;50.908;6.916;2023-01-13T10:00:11;17.53;;;1.93;;
76262;SDS011;65080;50.908;6.916;2023-01-13T10:02:50;8.47;;;2.47;;
76262;SDS011;65080;50.908;6.916;2023-01-13T10:05:37;16.57;;;3.00;;
76262;SDS011;65080;50.908;6.916;2023-01-13T10:08:09;12.17;;;1.40;;
76262;SDS011;65080;50.908;6.916;2023-01-13T10:10:41;10.30;;;1.80;;
76262;SDS011;65080;50.908;6.916;2023-01-13T10:13:16;7.77;;;2.23;;
76262;SDS011;65080;50.908;6.916;2023-01-13T10:15:51;10.10;;;1.83;;
76262;SDS011;65080;50.908;6.916;2023-01-13T10:18:25;8.73;;;1.60;;
76262;SDS011;65080;50.908;6.916;2023-01-13T10:21:05;7.80;;;1.90;;
76262;SDS011;65080;50.908;6.916;2023-01-13T10:23:45;15.90;;;2.53;;
76262;SDS011;65080;50.908;6.916;2023-01-13T10:26:35;11.13;;;3.00;;
76262;SDS011;65080;50.908;6.916;2023-01-13T10:29:18;9.70;;;1.73;;
76262;SDS011;65080;50.908;6.916;2023-01-13T10:31:50;11.33;;;2.40;;
76262;SDS011;65080;50.908;6.916;2023-01-13T10:34:19;16.90;;;2.60;;
76262;SDS011;65080;50.908;6.916;2023-01-13T10:36:57;9.53;;;2.13;;
76262;SDS011;65080;50.908;6.916;2023-01-13T10:39:37;10.03;;;1.90;;
76262;SDS011;65080;50.908;6.916;2023-01-13T10:42:10;13.73;;;2.23;;
76262;SDS011;65080;50.908;6.916;2023-01-13T10:44:47;12.73;;;2.43;;
76262;SDS011;65080;50.908;6.916;2023-01-13T10:47:20;12.77;;;2.10;;
76262;SDS011;65080;50.908;6.916;2023-01-13T10:49:58;7.57;;;2.03;;
76262;SDS011;65080;50.908;6.916;2023-01-13T10:52:56;11.90;;;1.93;;
76262;SDS011;65080;50.908;6.916;2023-01-13T10:55:27;11.43;;;2.50;;
76262;SDS011;65080;50.908;6.916;2023-01-13T10:58:10;13.03;;;1.70;;
76262;SDS011;65080;50.908;6.916;2023-01-13T11:00:41;9.83;;;1.60;;
76262;SDS011;65080;50.908;6.916;2023-01-13T11:03:13;14.23;;;3.13;;
76262;SDS011;65080;50.908;6.916;2023-01-13T11:05:47;8.30;;;2.20;;
76262;SDS011;65080;50.908;6.916;2023-01-13T11:08:20;16.90;;;2.70;;
76262;SDS011;65080;50.908;6.916;2023-01-13T11:10:50;11.70;;;3.07;;
76262;SDS011;65080;50.908;6.916;2023-01-13T11:13:22;19.60;;;3.10;;
76262;SDS011;65080;50.908;6.916;2023-01-13T11:15:59;13.23;;;3.10;;
76262;SDS011;65080;50.908;6.916;2023-01-13T11:18:36;15.43;;;2.90;;
76262;SDS011;65080;50.908;6.916;2023-01-13T11:21:11;11.10;;;2.47;;
76262;SDS011;65080;50.908;6.916;2023-01-13T11:23:49;8.90;;;2.07;;
76262;SDS011;65080;50.908;6.916;2023-01-13T11:26:35;9.97;;;1.83;;
76262;SDS011;65080;50.908;6.916;2023-01-13T11:29:08;12.13;;;2.20;;
76262;SDS011;65080;50.908;6.916;2023-01-13T11:31:41;14.20;;;3.47;;
76262;SDS011;65080;50.908;6.916;2023-01-13T11:34:18;11.93;;;2.00;;
76262;SDS011;65080;50.908;6.916;2023-01-13T11:36:54;13.57;;;2.40;;
76262;SDS011;65080;50.908;6.916;2023-01-13T11:39:28;13.23;;;2.40;;
76262;SDS011;65080;50.908;6.916;2023-01-13T11:42:01;16.60;;;3.23;;
76262;SDS011;65080;50.908;6.916;2023-01-13T11:44:52;12.40;;;2.20;;
76262;SDS011;65080;50.908;6.916;2023-01-13T11:47:28;12.23;;;3.00;;
76262;SDS011;65080;50.908;6.916;2023-01-13T11:49:58;15.23;;;2.30;;
76262;SDS011;65080;50.908;6.916;2023-01-13T11:52:30;15.37;;;2.30;;
76262;SDS011;65080;50.908;6.916;2023-01-13T11:55:25;10.93;;;2.50;;
76262;SDS011;65080;50.908;6.916;2023-01-13T11:58:12;13.90;;;2.60;;
76262;SDS011;65080;50.908;6.916;2023-01-13T12:01:00;9.60;;;2.10;;
76262;SDS011;65080;50.908;6.916;2023-01-13T12:03:37;15.83;;;2.40;;
76262;SDS011;65080;50.908;6.916;2023-01-13T12:06:12;10.40;;;2.37;;
76262;SDS011;65080;50.908;6.916;2023-01-13T12:09:02;10.67;;;1.57;;
76262;SDS011;65080;50.908;6.916;2023-01-13T12:11:44;6.50;;;2.17;;
76262;SDS011;65080;50.908;6.916;2023-01-13T12:14:42;6.90;;;2.30;;
76262;SDS011;65080;50.908;6.916;2023-01-13T12:17:21;6.50;;;1.80;;
76262;SDS011;65080;50.908;6.916;2023-01-13T12:19:57;5.67;;;1.90;;
76262;SDS011;65080;50.908;6.916;2023-01-13T12:22:28;8.13;;;1.60;;
76262;SDS011;65080;50.908;6.916;2023-01-13T12:25:03;10.40;;;2.20;;
76262;SDS011;65080;50.908;6.916;2023-01-13T12:27:42;11.80;;;1.97;;
76262;SDS011;65080;50.908;6.916;2023-01-13T12:30:19;12.03;;;2.50;;
76262;SDS011;65080;50.908;6.916;2023-01-13T12:32:52;6.50;;;1.57;;
76262;SDS011;65080;50.908;6.916;2023-01-13T12:35:27;13.13;;;1.73;;
76262;SDS011;65080;50.908;6.916;2023-01-13T12:38:05;7.83;;;1.67;;
76262;SDS011;65080;50.908;6.916;2023-01-13T12:40:45;7.17;;;2.40;;
76262;SDS011;65080;50.908;6.916;2023-01-13T12:43:22;4.80;;;1.90;;
76262;SDS011;65080;50.908;6.916;2023-01-13T12:49:05;7.90;;;2.10;;
76262;SDS011;65080;50.908;6.916;2023-01-13T12:51:59;11.77;;;2.67;;
76262;SDS011;65080;50.908;6.916;2023-01-13T12:57:35;15.17;;;2.53;;
76262;SDS011;65080;50.908;6.916;2023-01-13T13:00:13;10.00;;;2.20;;
76262;SDS011;65080;50.908;6.916;2023-01-13T13:05:57;8.50;;;2.20;;
76262;SDS011;65080;50.908;6.916;2023-01-13T13:11:37;8.43;;;2.23;;
76262;SDS011;65080;50.908;6.916;2023-01-13T13:17:43;13.93;;;3.00;;
76262;SDS011;65080;50.908;6.916;2023-01-13T13:23:43;11.97;;;2.03;;
76262;SDS011;65080;50.908;6.916;2023-01-13T13:26:17;17.60;;;2.40;;
76262;SDS011;65080;50.908;6.916;2023-01-13T13:28:57;10.37;;;2.90;;
76262;SDS011;65080;50.908;6.916;2023-01-13T13:31:56;9.40;;;2.20;;
76262;SDS011;65080;50.908;6.916;2023-01-13T13:34:43;12.23;;;2.30;;
76262;SDS011;65080;50.908;6.916;2023-01-13T13:37:25;8.67;;;2.30;;
76262;SDS011;65080;50.908;6.916;2023-01-13T13:40:37;15.47;;;1.83;;
76262;SDS011;65080;50.908;6.916;2023-01-13T13:43:24;11.50;;;3.47;;
76262;SDS011;65080;50.908;6.916;2023-01-13T13:46:24;10.53;;;1.97;;
76262;SDS011;65080;50.908;6.916;2023-01-13T13:49:12;10.10;;;1.93;;
76262;SDS011;65080;50.908;6.916;2023-01-13T13:51:44;9.70;;;2.13;;
76262;SDS011;65080;50.908;6.916;2023-01-13T13:54:16;14.13;;;2.10;;
76262;SDS011;65080;50.908;6.916;2023-01-13T13:56:45;11.83;;;2.00;;
76262;SDS011;65080;50.908;6.916;2023-01-13T13:59:16;9.50;;;1.80;;
76262;SDS011;65080;50.908;6.916;2023-01-13T14:01:49;7.77;;;1.80;;
76262;SDS011;65080;50.908;6.916;2023-01-13T14:04:19;16.17;;;2.30;;
76262;SDS011;65080;50.908;6.916;2023-01-13T14:06:53;13.30;;;1.97;;
76262;SDS011;65080;50.908;6.916;2023-01-13T14:09:23;8.30;;;1.93;;
76262;SDS011;65080;50.908;6.916;2023-01-13T14:11:55;13.30;;;2.13;;
76262;SDS011;65080;50.908;6.916;2023-01-13T14:14:24;11.93;;;2.40;;
76262;SDS011;65080;50.908;6.916;2023-01-13T14:16:53;11.60;;;3.30;;
76262;SDS011;65080;50.908;6.916;2023-01-13T14:19:24;8.80;;;2.13;;
76262;SDS011;65080;50.908;6.916;2023-01-13T14:21:57;12.83;;;2.23;;
76262;SDS011;65080;50.908;6.916;2023-01-13T14:24:28;9.33;;;2.00;;
76262;SDS011;65080;50.908;6.916;2023-01-13T14:27:09;11.27;;;2.03;;
76262;SDS011;65080;50.908;6.916;2023-01-13T14:29:40;13.63;;;3.07;;
76262;SDS011;65080;50.908;6.916;2023-01-13T14:32:10;10.33;;;2.40;;
76262;SDS011;65080;50.908;6.916;2023-01-13T14:34:41;9.00;;;1.40;;
76262;SDS011;65080;50.908;6.916;2023-01-13T14:37:24;9.20;;;1.80;;
76262;SDS011;65080;50.908;6.916;2023-01-13T14:39:57;11.10;;;2.23;;
76262;SDS011;65080;50.908;6.916;2023-01-13T14:42:25;8.13;;;2.00;;
76262;SDS011;65080;50.908;6.916;2023-01-13T14:44:55;8.53;;;2.33;;
76262;SDS011;65080;50.908;6.916;2023-01-13T14:47:24;9.90;;;1.90;;
76262;SDS011;65080;50.908;6.916;2023-01-13T14:49:56;7.70;;;2.03;;
76262;SDS011;65080;50.908;6.916;2023-01-13T14:52:30;11.87;;;1.90;;
76262;SDS011;65080;50.908;6.916;2023-01-13T15:03:54;6.70;;;1.67;;
76262;SDS011;65080;50.908;6.916;2023-01-13T15:06:37;10.73;;;2.13;;
76262;SDS011;65080;50.908;6.916;2023-01-13T15:09:11;15.87;;;2.50;;
76262;SDS011;65080;50.908;6.916;2023-01-13T15:11:40;14.13;;;1.93;;
76262;SDS011;65080;50.908;6.916;2023-01-13T15:14:09;12.77;;;2.60;;
76262;SDS011;65080;50.908;6.916;2023-01-13T15:16:38;14.03;;;2.47;;
76262;SDS011;65080;50.908;6.916;2023-01-13T15:19:07;11.67;;;2.30;;
76262;SDS011;65080;50.908;6.916;2023-01-13T15:21:36;12.27;;;1.80;;
76262;SDS011;65080;50.908;6.916;2023-01-13T15:24:05;10.87;;;2.10;;
76262;SDS011;65080;50.908;6.916;2023-01-13T15:26:35;15.93;;;2.20;;
76262;SDS011;65080;50.908;6.916;2023-01-13T15:29:05;11.10;;;1.90;;
76262;SDS011;65080;50.908;6.916;2023-01-13T15:31:39;11.30;;;2.17;;
76262;SDS011;65080;50.908;6.916;2023-01-13T15:34:08;9.20;;;1.90;;
76262;SDS011;65080;50.908;6.916;2023-01-13T15:36:37;10.70;;;2.60;;
76262;SDS011;65080;50.908;6.916;2023-01-13T15:39:09;12.67;;;1.90;;
76262;SDS011;65080;50.908;6.916;2023-01-13T15:41:40;12.23;;;2.70;;
76262;SDS011;65080;50.908;6.916;2023-01-13T15:44:25;16.03;;;3.53;;
76262;SDS011;65080;50.908;6.916;2023-01-13T15:47:20;17.33;;;3.47;;
76262;SDS011;65080;50.908;6.916;2023-01-13T15:49:51;17.30;;;3.20;;
76262;SDS011;65080;50.908;6.916;2023-01-13T15:52:21;9.03;;;3.03;;
76262;SDS011;65080;50.908;6.916;2023-01-13T15:54:51;13.57;;;3.10;;
76262;SDS011;65080;50.908;6.916;2023-01-13T15:57:22;30.90;;;4.07;;